Time;durP1;ratioP1;P1;durP2;ratioP2;P2;SDS_P1;SDS_P2;PMS_P1;PMS_P2;Temp;Humidity;BMP_temperature;BMP_pressure;BME280_temperature;BME280_humidity;BME280_pressure;Samples;Min_cycle;Max_cycle;Signal;HPM_P1;HPM_P2
2022/11/06 00:01:07;;;;;;;3.00;1.23;;;9.30;45.40;;;;;;5013577;28;20177;-73
2022/11/06 00:03:33;;;;;;;3.53;1.50;;;9.30;45.10;;;;;;5014049;28;20552;-72
2022/11/06 00:08:43;;;;;;;3.35;1.50;;;9.20;45.00;;;;;;5011900;28;20436;-72
2022/11/06 00:11:11;;;;;;;5.30;2.63;;;9.40;45.20;;;;;;5014499;28;20216;-73
2022/11/06 00:13:37;;;;;;;3.10;1.30;;;9.10;46.00;;;;;;5019470;28;20221;-72
2022/11/06 00:16:04;;;;;;;3.67;1.70;;;9.10;45.90;;;;;;5013754;28;20194;-74
2022/11/06 00:18:30;;;;;;;5.43;2.35;;;9.10;45.90;;;;;;5014291;28;20204;-74
2022/11/06 00:20:56;;;;;;;5.85;2.47;;;9.10;45.70;;;;;;5012561;28;20220;-74
2022/11/06 00:23:22;;;;;;;6.67;2.17;;;8.70;46.30;;;;;;5012164;28;20711;-72
2022/11/06 00:25:51;;;;;;;4.50;2.10;;;8.70;46.80;;;;;;5013042;28;20176;-73
2022/11/06 00:28:18;;;;;;;4.13;2.00;;;8.60;46.70;;;;;;5012421;28;20180;-72
2022/11/06 00:30:43;;;;;;;3.55;1.67;;;8.70;46.90;;;;;;5013734;28;20235;-79
2022/11/06 00:33:09;;;;;;;3.30;1.40;;;8.50;47.90;;;;;;5013846;28;20731;-72
2022/11/06 00:35:38;;;;;;;3.95;2.00;;;8.70;47.10;;;;;;5013950;28;20177;-72
2022/11/06 00:38:04;;;;;;;4.10;1.92;;;8.50;47.50;;;;;;5012273;28;20197;-73
2022/11/06 00:40:29;;;;;;;4.75;1.90;;;8.40;47.40;;;;;;5012998;28;20185;-72
2022/11/06 00:42:56;;;;;;;7.43;3.60;;;8.40;48.20;;;;;;5021484;28;20193;-72
2022/11/06 00:45:22;;;;;;;3.55;1.60;;;8.40;47.30;;;;;;5014144;28;20201;-72
2022/11/06 00:47:48;;;;;;;5.35;2.15;;;8.60;46.70;;;;;;5013742;28;20240;-72
2022/11/06 00:50:14;;;;;;;3.40;1.40;;;8.70;46.50;;;;;;5012521;28;20177;-72
2022/11/06 00:52:44;;;;;;;3.80;1.63;;;8.70;46.40;;;;;;5012108;28;20173;-72
2022/11/06 00:55:10;;;;;;;9.13;2.70;;;8.60;45.80;;;;;;5012203;28;20744;-72
2022/11/06 00:57:35;;;;;;;3.10;1.20;;;8.60;46.20;;;;;;5013623;28;20284;-73
2022/11/06 01:00:01;;;;;;;3.20;1.30;;;8.60;46.00;;;;;;5011424;28;20189;-75
2022/11/06 01:02:27;;;;;;;3.30;1.30;;;8.60;46.10;;;;;;5013138;28;20192;-72
2022/11/06 01:04:52;;;;;;;3.60;1.60;;;8.70;45.50;;;;;;5013302;28;20519;-72
2022/11/06 01:07:18;;;;;;;3.50;1.50;;;8.60;45.50;;;;;;5013071;28;20185;-72
2022/11/06 01:09:43;;;;;;;3.20;1.27;;;8.60;45.60;;;;;;5013178;28;20264;-73
2022/11/06 01:12:09;;;;;;;10.23;1.80;;;8.60;45.40;;;;;;5011578;28;20345;-75
2022/11/06 01:14:37;;;;;;;4.47;1.93;;;8.60;45.40;;;;;;5011632;28;20220;-72
2022/11/06 01:17:03;;;;;;;3.50;1.30;;;8.30;45.50;;;;;;5013541;28;20255;-72
2022/11/06 01:19:28;;;;;;;3.80;1.63;;;8.20;46.30;;;;;;5012282;28;20269;-72
2022/11/06 01:21:54;;;;;;;4.53;2.20;;;8.10;45.70;;;;;;5011880;28;20243;-72
2022/11/06 01:24:23;;;;;;;3.60;1.60;;;7.90;46.90;;;;;;5011365;28;20194;-74
2022/11/06 01:26:49;;;;;;;3.30;1.10;;;8.10;46.60;;;;;;5013030;28;20280;-75
2022/11/06 01:29:16;;;;;;;3.70;1.45;;;8.20;46.40;;;;;;5012618;28;20260;-72
2022/11/06 01:31:42;;;;;;;3.40;1.20;;;7.80;47.60;;;;;;5010694;28;20181;-72
2022/11/06 01:34:09;;;;;;;3.80;1.50;;;7.80;47.60;;;;;;5012233;28;20302;-72
2022/11/06 01:36:35;;;;;;;3.50;1.30;;;7.30;49.60;;;;;;5012443;28;20432;-75
2022/11/06 01:39:04;;;;;;;3.90;1.63;;;7.50;49.20;;;;;;5011693;28;21231;-73
2022/11/06 01:41:36;;;;;;;3.40;1.20;;;7.50;48.90;;;;;;5007143;28;20657;-73
2022/11/06 01:44:05;;;;;;;3.80;1.50;;;7.40;49.00;;;;;;5011728;28;20205;-72
2022/11/06 01:46:33;;;;;;;3.40;1.20;;;7.50;49.00;;;;;;5012586;28;20185;-73
2022/11/06 01:49:15;;;;;;;3.80;1.40;;;7.30;49.70;;;;;;5012537;28;20509;-73
2022/11/06 01:51:45;;;;;;;3.60;1.20;;;7.70;47.80;;;;;;5005972;28;20251;-73
2022/11/06 01:54:11;;;;;;;3.60;1.35;;;7.80;47.70;;;;;;5008483;28;20205;-73
2022/11/06 01:56:38;;;;;;;3.50;1.20;;;8.10;47.90;;;;;;5010295;28;20185;-72
2022/11/06 01:59:05;;;;;;;3.50;1.20;;;8.20;47.10;;;;;;5011564;28;20220;-72
2022/11/06 02:01:31;;;;;;;3.90;1.50;;;8.20;46.70;;;;;;5012573;28;20181;-73
2022/11/06 02:04:21;;;;;;;4.23;1.50;;;8.20;46.60;;;;;;5011100;28;20311;-74
2022/11/06 02:06:47;;;;;;;3.70;1.33;;;8.10;46.50;;;;;;5001805;28;20193;-73
2022/11/06 02:09:14;;;;;;;3.50;1.30;;;8.00;47.60;;;;;;5011984;28;20207;-73
2022/11/06 02:11:51;;;;;;;3.78;1.40;;;7.90;47.30;;;;;;5011131;28;20608;-73
2022/11/06 02:14:23;;;;;;;4.88;2.05;;;7.90;47.80;;;;;;5010663;28;20213;-73
2022/11/06 02:17:05;;;;;;;3.70;1.30;;;7.80;47.70;;;;;;5011320;28;20296;-72
2022/11/06 02:19:54;;;;;;;3.85;1.30;;;7.80;48.00;;;;;;5012516;28;20660;-73
2022/11/06 02:22:47;;;;;;;6.95;1.83;;;7.90;47.70;;;;;;5011545;28;20176;-72
2022/11/06 02:25:23;;;;;;;4.60;1.85;;;8.00;47.80;;;;;;5010752;28;20676;-75
2022/11/06 02:28:02;;;;;;;19.30;2.85;;;8.10;47.40;;;;;;5006663;28;20251;-75
2022/11/06 02:30:35;;;;;;;3.70;1.27;;;8.10;47.60;;;;;;5011616;28;20264;-75
2022/11/06 02:33:07;;;;;;;3.50;1.20;;;8.10;47.60;;;;;;5010919;28;20209;-72
2022/11/06 02:35:35;;;;;;;4.18;1.50;;;8.20;46.80;;;;;;5010799;28;20276;-72
2022/11/06 02:38:11;;;;;;;3.50;1.20;;;8.20;46.60;;;;;;5011500;28;20201;-72
2022/11/06 02:40:42;;;;;;;4.22;1.38;;;8.10;46.50;;;;;;5006283;28;20185;-72
2022/11/06 02:43:08;;;;;;;3.90;1.48;;;8.00;46.90;;;;;;5011038;28;20193;-73
2022/11/06 02:45:57;;;;;;;7.65;1.85;;;7.90;47.60;;;;;;5011646;28;20181;-72
2022/11/06 02:48:28;;;;;;;5.53;1.60;;;7.90;46.80;;;;;;5011090;28;20708;-72
2022/11/06 02:50:57;;;;;;;3.70;1.63;;;7.90;47.00;;;;;;5011682;28;20290;-74
2022/11/06 02:53:25;;;;;;;3.60;1.20;;;8.00;46.30;;;;;;5010973;28;20212;-72
2022/11/06 02:55:56;;;;;;;4.15;1.63;;;7.90;47.20;;;;;;5008756;28;20185;-76
2022/11/06 02:59:00;;;;;;;3.60;1.20;;;7.90;46.30;;;;;;5019417;28;20197;-75
2022/11/06 03:01:38;;;;;;;3.67;1.25;;;7.80;46.70;;;;;;4934366;29;20179;-72
2022/11/06 03:04:19;;;;;;;4.43;1.80;;;7.90;47.30;;;;;;4933761;29;20717;-73
2022/11/06 03:06:50;;;;;;;3.92;1.55;;;7.90;46.80;;;;;;4936214;29;20225;-76
2022/11/06 03:09:21;;;;;;;4.00;1.40;;;8.00;46.60;;;;;;4933199;29;20184;-72
2022/11/06 03:11:57;;;;;;;4.00;1.50;;;8.10;46.20;;;;;;4931427;29;20571;-73
2022/11/06 03:14:30;;;;;;;5.15;1.90;;;8.10;45.60;;;;;;4934830;29;20211;-72
2022/11/06 03:17:06;;;;;;;5.70;1.90;;;8.00;46.70;;;;;;4932367;29;20219;-72
2022/11/06 03:19:47;;;;;;;3.60;1.20;;;7.90;46.50;;;;;;4923488;29;20282;-72
2022/11/06 03:22:31;;;;;;;3.70;1.30;;;8.20;45.70;;;;;;4932089;29;20323;-75
2022/11/06 03:24:57;;;;;;;4.35;1.73;;;8.10;45.60;;;;;;4942289;29;20220;-72
2022/11/06 03:27:35;;;;;;;4.27;1.43;;;8.00;45.90;;;;;;4936675;29;20231;-73
2022/11/06 03:30:10;;;;;;;3.90;1.30;;;8.10;45.20;;;;;;4945563;29;20219;-73
2022/11/06 03:32:46;;;;;;;3.80;1.35;;;8.00;45.70;;;;;;4988130;28;20197;-72
2022/11/06 03:35:21;;;;;;;4.35;1.77;;;8.00;46.60;;;;;;5012987;28;20195;-72
2022/11/06 03:38:04;;;;;;;3.60;1.20;;;7.80;47.20;;;;;;5014726;28;20204;-74
2022/11/06 03:40:36;;;;;;;4.60;1.60;;;7.80;46.70;;;;;;5009517;28;20185;-72
2022/11/06 03:43:05;;;;;;;3.90;1.48;;;7.80;46.60;;;;;;5013461;28;20201;-73
2022/11/06 03:45:32;;;;;;;5.07;2.28;;;7.70;46.90;;;;;;5015575;28;20184;-72
2022/11/06 03:48:13;;;;;;;3.60;1.10;;;7.60;47.50;;;;;;5014390;28;20185;-73
2022/11/06 03:50:50;;;;;;;3.67;1.10;;;7.50;47.40;;;;;;5008969;28;20161;-75
2022/11/06 03:53:46;;;;;;;3.80;1.17;;;7.10;48.30;;;;;;5012941;28;20212;-73
2022/11/06 03:56:27;;;;;;;3.70;1.20;;;7.10;48.30;;;;;;5011737;28;20536;-73
2022/11/06 03:58:55;;;;;;;3.97;1.40;;;7.20;48.20;;;;;;5014530;28;20216;-72
2022/11/06 04:01:27;;;;;;;4.30;1.60;;;7.00;48.30;;;;;;5012567;28;20612;-72
2022/11/06 04:04:04;;;;;;;4.95;1.60;;;6.90;49.10;;;;;;5013653;28;20216;-72
2022/11/06 04:06:41;;;;;;;5.30;2.00;;;6.60;50.30;;;;;;5013894;28;20181;-73
2022/11/06 04:14:46;;;;;;;4.20;1.30;;;6.20;51.90;;;;;;5000524;28;20216;-74
2022/11/06 04:17:14;;;;;;;4.05;1.40;;;6.30;50.50;;;;;;5014260;28;20707;-72
2022/11/06 04:19:48;;;;;;;4.65;1.85;;;6.50;49.90;;;;;;5013850;28;20193;-73
2022/11/06 04:22:31;;;;;;;4.00;1.23;;;6.60;48.80;;;;;;5013411;28;20173;-72
2022/11/06 04:28:29;;;;;;;4.72;1.30;;;6.90;46.90;;;;;;5012189;28;20239;-74
2022/11/06 04:31:11;;;;;;;4.18;1.30;;;7.00;47.00;;;;;;5014228;28;20672;-72
2022/11/06 04:33:52;;;;;;;4.00;1.20;;;7.00;47.00;;;;;;5005527;28;20213;-73
2022/11/06 04:36:42;;;;;;;4.20;1.30;;;6.80;46.80;;;;;;5014284;28;20192;-72
2022/11/06 04:39:25;;;;;;;5.45;2.15;;;6.80;46.80;;;;;;5013381;28;20688;-72
2022/11/06 04:42:08;;;;;;;4.07;1.20;;;6.80;46.80;;;;;;5013119;28;20220;-72
2022/11/06 04:44:48;;;;;;;4.22;1.38;;;6.70;47.10;;;;;;5006666;28;20201;-72
2022/11/06 04:47:17;;;;;;;4.50;1.58;;;6.70;46.70;;;;;;5014374;28;20247;-72
2022/11/06 04:49:44;;;;;;;4.53;1.35;;;6.80;46.80;;;;;;5013847;28;20178;-75
2022/11/06 04:52:16;;;;;;;4.10;1.20;;;6.80;46.30;;;;;;5012649;28;20185;-72
2022/11/06 04:54:45;;;;;;;4.10;1.10;;;6.10;48.00;;;;;;5010846;28;20209;-72
2022/11/06 04:57:10;;;;;;;4.20;1.20;;;6.00;48.60;;;;;;5011594;28;20227;-72
2022/11/06 04:59:36;;;;;;;4.10;1.20;;;6.30;48.20;;;;;;5014009;28;20173;-72
2022/11/06 05:02:04;;;;;;;4.20;1.20;;;6.50;47.20;;;;;;5013031;28;20185;-72
2022/11/06 05:04:29;;;;;;;4.72;1.75;;;6.50;47.20;;;;;;5008403;28;20696;-72
2022/11/06 05:06:55;;;;;;;4.33;1.30;;;6.40;47.10;;;;;;5012527;28;20189;-74
2022/11/06 05:09:21;;;;;;;4.50;1.53;;;6.40;46.60;;;;;;5013299;28;20196;-72
2022/11/06 05:11:46;;;;;;;4.10;1.13;;;6.40;46.50;;;;;;5013066;28;20173;-76
2022/11/06 05:14:12;;;;;;;4.13;1.20;;;6.10;46.90;;;;;;5013085;28;20245;-72
2022/11/06 05:16:37;;;;;;;6.07;1.87;;;5.60;48.90;;;;;;5012191;28;20186;-73
2022/11/06 05:19:03;;;;;;;4.10;1.10;;;5.30;49.90;;;;;;5012651;28;20185;-72
2022/11/06 05:24:13;;;;;;;4.57;1.75;;;4.40;55.40;;;;;;5011627;28;20223;-72
2022/11/06 05:26:38;;;;;;;4.33;1.30;;;4.30;58.80;;;;;;5012145;28;20267;-72
2022/11/06 05:29:04;;;;;;;4.20;1.20;;;4.50;57.40;;;;;;5010626;28;20200;-72
2022/11/06 05:31:30;;;;;;;4.40;1.30;;;4.70;55.60;;;;;;5012823;28;20173;-75
2022/11/06 05:33:55;;;;;;;4.30;1.30;;;4.70;55.70;;;;;;5011733;28;20685;-72
2022/11/06 05:36:21;;;;;;;4.30;1.20;;;4.80;55.40;;;;;;5013397;28;20184;-72
2022/11/06 05:38:46;;;;;;;4.90;1.70;;;5.40;52.80;;;;;;5012216;28;20283;-72
2022/11/06 05:41:12;;;;;;;4.53;1.37;;;5.60;51.30;;;;;;5012559;28;20181;-73
2022/11/06 05:43:38;;;;;;;4.40;1.30;;;5.80;50.40;;;;;;5011692;28;20209;-71
2022/11/06 05:46:03;;;;;;;4.40;1.40;;;6.20;48.30;;;;;;5012845;28;20182;-72
2022/11/06 05:48:29;;;;;;;4.67;1.67;;;6.30;48.10;;;;;;5011558;28;20188;-73
2022/11/06 05:51:06;;;;;;;4.23;1.30;;;6.50;46.80;;;;;;5010806;28;20247;-72
2022/11/06 05:53:34;;;;;;;4.30;1.40;;;6.10;47.50;;;;;;5011037;28;20220;-72
2022/11/06 05:56:01;;;;;;;5.05;1.73;;;6.20;47.00;;;;;;5011568;28;20204;-73
2022/11/06 05:58:27;;;;;;;4.20;1.20;;;6.30;47.60;;;;;;5012042;28;20235;-73
2022/11/06 06:00:54;;;;;;;4.53;1.63;;;6.30;46.90;;;;;;5013327;28;21338;-72
2022/11/06 06:03:23;;;;;;;6.97;1.90;;;6.00;47.20;;;;;;5012047;28;20204;-73
2022/11/06 06:05:48;;;;;;;4.10;1.20;;;5.80;49.90;;;;;;5010694;28;20240;-72
2022/11/06 06:08:14;;;;;;;4.17;1.27;;;6.10;48.60;;;;;;5012053;28;20244;-72
2022/11/06 06:10:44;;;;;;;4.17;1.20;;;6.10;47.80;;;;;;5010851;28;20196;-72
2022/11/06 06:13:10;;;;;;;5.03;1.83;;;6.30;47.30;;;;;;5010024;28;20863;-72
2022/11/06 06:15:40;;;;;;;5.70;1.88;;;6.60;45.60;;;;;;5011835;28;20238;-73
2022/11/06 06:18:06;;;;;;;5.38;2.33;;;6.60;45.50;;;;;;5011416;28;20488;-72
2022/11/06 06:20:32;;;;;;;4.05;1.20;;;6.10;46.20;;;;;;5012569;28;20197;-72
2022/11/06 06:22:58;;;;;;;4.50;1.40;;;5.50;48.70;;;;;;5009594;28;20244;-74
2022/11/06 06:25:25;;;;;;;4.60;1.65;;;5.40;50.80;;;;;;5012115;28;20415;-72
2022/11/06 06:27:52;;;;;;;4.40;1.50;;;5.70;49.90;;;;;;5009684;28;20528;-75
2022/11/06 06:30:18;;;;;;;5.15;1.48;;;5.90;50.50;;;;;;5011822;28;20263;-75
2022/11/06 06:32:43;;;;;;;4.47;1.55;;;7.70;51.10;;;;;;5010059;28;20692;-75
2022/11/06 06:35:10;;;;;;;4.20;1.20;;;6.00;47.80;;;;;;5011182;28;20263;-75
2022/11/06 06:37:35;;;;;;;4.15;1.10;;;6.10;48.10;;;;;;5010899;28;20307;-73
2022/11/06 06:40:01;;;;;;;4.20;1.20;;;6.30;46.40;;;;;;5011755;28;20269;-72
2022/11/06 06:42:30;;;;;;;4.20;1.20;;;6.30;46.40;;;;;;5011332;28;20173;-72
2022/11/06 06:44:56;;;;;;;4.05;1.23;;;6.30;47.20;;;;;;5008864;28;20185;-75
2022/11/06 06:47:21;;;;;;;5.23;1.67;;;6.40;46.50;;;;;;5008673;28;20190;-73
2022/11/06 06:49:47;;;;;;;11.47;2.40;;;6.50;45.90;;;;;;5012319;28;20180;-72
2022/11/06 06:52:13;;;;;;;4.10;1.20;;;6.60;45.90;;;;;;5011182;28;20215;-72
2022/11/06 06:54:39;;;;;;;4.10;1.20;;;6.50;46.20;;;;;;5009151;28;20217;-75
2022/11/06 06:57:06;;;;;;;4.00;1.20;;;6.50;46.10;;;;;;5010178;28;20460;-72
2022/11/06 06:59:32;;;;;;;4.00;1.20;;;6.50;45.70;;;;;;5008716;28;20420;-72
2022/11/06 07:01:58;;;;;;;4.00;1.23;;;6.60;45.80;;;;;;5010750;28;20197;-72
2022/11/06 07:04:23;;;;;;;4.13;1.50;;;6.60;45.90;;;;;;5010581;28;20193;-72
2022/11/06 07:06:51;;;;;;;4.00;1.40;;;6.60;46.30;;;;;;5012399;28;20174;-73
2022/11/06 07:09:17;;;;;;;3.75;1.15;;;6.60;46.60;;;;;;5011693;28;20544;-72
2022/11/06 07:11:42;;;;;;;4.00;1.40;;;6.70;46.10;;;;;;5010903;28;20183;-73
2022/11/06 07:14:09;;;;;;;4.00;1.53;;;6.70;45.70;;;;;;5011364;28;20274;-75
2022/11/06 07:16:35;;;;;;;3.90;1.23;;;6.70;45.80;;;;;;5008777;28;20186;-72
2022/11/06 07:19:00;;;;;;;3.80;1.30;;;6.70;45.30;;;;;;5019706;28;20699;-73
2022/11/06 07:21:26;;;;;;;4.30;1.50;;;6.60;45.60;;;;;;5010226;28;20212;-72
2022/11/06 07:23:52;;;;;;;3.83;1.50;;;6.60;45.80;;;;;;5009752;28;20209;-72
2022/11/06 07:26:17;;;;;;;4.00;1.40;;;6.50;46.10;;;;;;5009789;28;20174;-73
2022/11/06 07:28:43;;;;;;;3.73;1.13;;;6.40;46.40;;;;;;5007877;28;20989;-86
2022/11/06 07:31:11;;;;;;;3.60;1.10;;;6.60;46.60;;;;;;5026517;28;20204;-85
2022/11/06 07:33:37;;;;;;;5.05;1.73;;;6.70;47.50;;;;;;5010572;28;20255;-86
2022/11/06 07:36:11;;;;;;;3.85;1.30;;;7.10;46.70;;;;;;5012018;28;20281;-85
2022/11/06 07:38:38;;;;;;;3.90;1.42;;;6.80;46.00;;;;;;5009710;28;20291;-77
2022/11/06 07:41:14;;;;;;;3.90;1.42;;;6.90;46.30;;;;;;5009724;28;20268;-76
2022/11/06 07:43:41;;;;;;;4.03;1.55;;;6.80;46.80;;;;;;5009832;28;20203;-77
2022/11/06 07:46:08;;;;;;;4.22;1.50;;;7.00;46.20;;;;;;5010323;28;20653;-76
2022/11/06 07:48:34;;;;;;;3.60;1.30;;;7.10;45.70;;;;;;5011147;28;20216;-77
2022/11/06 07:51:04;;;;;;;3.67;1.53;;;7.00;46.10;;;;;;5009836;28;20966;-76
2022/11/06 07:53:30;;;;;;;3.47;1.27;;;6.60;48.60;;;;;;5010891;28;20983;-76
2022/11/06 07:55:56;;;;;;;3.30;1.20;;;6.80;47.20;;;;;;5026667;28;20196;-77
2022/11/06 07:58:23;;;;;;;4.70;2.17;;;6.30;49.30;;;;;;5032152;28;20485;-77
2022/11/06 08:00:54;;;;;;;4.25;1.85;;;6.50;51.00;;;;;;5033005;28;20408;-76
2022/11/06 08:03:20;;;;;;;3.40;1.40;;;6.70;51.40;;;;;;5014827;28;20677;-77
2022/11/06 08:05:46;;;;;;;3.17;1.27;;;7.20;49.50;;;;;;5008206;28;20177;-76
2022/11/06 08:08:12;;;;;;;3.00;1.13;;;7.40;47.90;;;;;;5011316;28;20196;-75
2022/11/06 08:10:42;;;;;;;3.75;1.85;;;7.60;47.90;;;;;;5014179;28;20244;-77
2022/11/06 08:13:13;;;;;;;3.05;1.33;;;7.60;47.50;;;;;;5012159;28;20251;-76
2022/11/06 08:15:40;;;;;;;2.80;1.20;;;7.30;54.30;;;;;;5014847;28;20252;-76
2022/11/06 08:18:07;;;;;;;3.20;1.40;;;7.50;57.90;;;;;;5012491;28;20711;-76
2022/11/06 08:20:34;;;;;;;3.20;1.30;;;7.60;58.10;;;;;;5026372;28;20176;-76
2022/11/06 08:23:01;;;;;;;3.92;1.88;;;7.70;57.70;;;;;;5024401;28;20702;-77
2022/11/06 08:25:28;;;;;;;3.00;1.20;;;8.00;57.40;;;;;;5014680;28;20184;-76
2022/11/06 08:27:58;;;;;;;2.95;1.10;;;8.30;56.40;;;;;;5013675;28;20641;-77
2022/11/06 08:30:24;;;;;;;2.90;1.10;;;8.60;55.30;;;;;;5014346;28;20235;-75
2022/11/06 08:32:50;;;;;;;3.10;1.20;;;8.90;53.40;;;;;;5013761;28;20227;-77
2022/11/06 08:35:16;;;;;;;2.90;1.00;;;9.00;52.30;;;;;;5014202;28;20181;-76
2022/11/06 08:37:43;;;;;;;3.08;1.25;;;9.40;51.40;;;;;;5013665;28;20201;-76
2022/11/06 08:40:09;;;;;;;3.10;1.20;;;9.30;51.30;;;;;;5014841;28;20275;-77
2022/11/06 08:42:35;;;;;;;3.03;1.15;;;9.00;53.50;;;;;;5021575;28;20215;-77
2022/11/06 08:45:00;;;;;;;3.10;1.20;;;9.30;51.50;;;;;;5013355;28;20591;-76
2022/11/06 08:47:26;;;;;;;3.00;1.20;;;8.80;53.10;;;;;;5014576;28;20888;-77
2022/11/06 08:49:51;;;;;;;2.93;1.10;;;8.60;56.00;;;;;;5020591;28;20189;-77
2022/11/06 08:52:17;;;;;;;3.03;1.30;;;8.80;56.00;;;;;;5025551;28;20176;-76
2022/11/06 08:54:43;;;;;;;4.27;1.53;;;9.00;54.20;;;;;;5019059;28;20272;-78
2022/11/06 08:57:08;;;;;;;2.90;1.10;;;9.30;53.60;;;;;;5014398;28;20247;-77
2022/11/06 08:59:34;;;;;;;3.20;1.23;;;9.30;52.60;;;;;;5014999;28;20170;-79
2022/11/06 09:02:00;;;;;;;3.33;1.77;;;9.40;52.50;;;;;;5018510;28;20649;-81
2022/11/06 09:04:25;;;;;;;2.77;1.20;;;9.60;51.80;;;;;;5023086;28;20218;-81
2022/11/06 09:06:52;;;;;;;2.80;1.20;;;9.70;51.00;;;;;;5016997;28;20917;-82
2022/11/06 09:09:18;;;;;;;3.50;1.50;;;10.10;48.60;;;;;;5015940;28;20178;-81
2022/11/06 09:11:43;;;;;;;2.70;1.30;;;10.10;45.70;;;;;;5016517;28;20189;-85
2022/11/06 09:14:09;;;;;;;3.00;1.30;;;9.20;50.70;;;;;;5017802;28;20194;-80
2022/11/06 09:16:34;;;;;;;2.70;1.13;;;8.70;54.10;;;;;;5015703;28;20179;-80
2022/11/06 09:19:00;;;;;;;2.80;1.20;;;8.30;55.60;;;;;;5016251;28;20643;-81
2022/11/06 09:21:26;;;;;;;2.90;1.30;;;8.90;55.20;;;;;;5023645;28;20261;-79
2022/11/06 09:23:51;;;;;;;2.83;1.30;;;8.30;54.40;;;;;;5013241;28;20205;-78
2022/11/06 09:26:17;;;;;;;3.13;1.63;;;7.90;60.00;;;;;;5013766;28;20181;-77
2022/11/06 09:28:43;;;;;;;3.37;1.37;;;8.00;59.60;;;;;;5011509;28;20189;-77
2022/11/06 09:31:09;;;;;;;3.20;1.50;;;8.10;58.40;;;;;;5010359;28;20189;-78
2022/11/06 09:33:34;;;;;;;2.90;1.50;;;8.00;57.70;;;;;;5012337;28;20201;-75
2022/11/06 09:36:03;;;;;;;2.70;1.10;;;8.10;57.00;;;;;;5012009;28;20986;-76
2022/11/06 09:38:29;;;;;;;2.70;1.20;;;7.60;60.50;;;;;;5016212;28;20471;-75
2022/11/06 09:41:00;;;;;;;2.70;1.20;;;7.10;64.10;;;;;;5016845;28;20680;-76
2022/11/06 09:43:44;;;;;;;2.80;1.20;;;6.90;66.90;;;;;;5012406;28;20251;-76
2022/11/06 09:46:28;;;;;;;2.75;1.25;;;7.00;64.90;;;;;;5012536;28;20659;-75
2022/11/06 09:49:19;;;;;;;2.80;1.30;;;7.20;62.10;;;;;;5028567;28;20246;-75
2022/11/06 09:51:51;;;;;;;3.10;1.42;;;6.90;63.90;;;;;;5032739;28;20176;-75
2022/11/06 09:54:24;;;;;;;2.72;1.17;;;6.80;65.70;;;;;;5026078;28;20208;-75
2022/11/06 09:56:56;;;;;;;3.10;1.60;;;6.70;68.50;;;;;;5011988;28;20231;-76
2022/11/06 09:59:22;;;;;;;2.75;1.27;;;7.30;63.70;;;;;;5020772;28;20268;-75
2022/11/06 10:01:56;;;;;;;2.70;1.15;;;8.20;59.40;;;;;;5012985;28;20178;-76
2022/11/06 10:04:46;;;;;;;3.40;1.60;;;8.80;54.30;;;;;;5011853;28;20205;-75
2022/11/06 10:07:28;;;;;;;2.70;1.10;;;9.40;51.60;;;;;;5012549;28;20186;-76
2022/11/06 10:09:54;;;;;;;2.70;1.10;;;9.60;49.50;;;;;;5020302;28;20185;-75
2022/11/06 10:12:44;;;;;;;2.70;1.20;;;10.20;46.20;;;;;;5012628;28;20612;-76
2022/11/06 10:15:26;;;;;;;2.90;1.40;;;10.40;45.00;;;;;;5012110;28;20924;-76
2022/11/06 10:18:14;;;;;;;2.63;1.10;;;10.60;45.30;;;;;;5010897;28;20216;-78
2022/11/06 10:20:46;;;;;;;2.70;1.17;;;10.70;45.30;;;;;;5018955;28;20181;-76
2022/11/06 10:23:25;;;;;;;3.42;1.75;;;10.10;44.90;;;;;;5018286;28;20695;-76
2022/11/06 10:25:55;;;;;;;2.70;1.25;;;9.00;51.90;;;;;;5012699;28;20183;-75
2022/11/06 10:28:28;;;;;;;3.22;1.67;;;9.00;51.90;;;;;;5014706;28;20553;-76
2022/11/06 10:31:23;;;;;;;3.70;1.75;;;9.10;50.90;;;;;;5016735;28;20209;-76
2022/11/06 10:34:07;;;;;;;3.72;2.22;;;8.30;56.90;;;;;;5012767;28;20720;-78
2022/11/06 10:36:49;;;;;;;2.70;1.40;;;9.40;53.30;;;;;;5011213;28;20284;-76
2022/11/06 10:39:19;;;;;;;2.60;1.30;;;10.20;46.90;;;;;;5011192;28;20704;-77
2022/11/06 10:41:50;;;;;;;2.70;1.40;;;10.30;46.10;;;;;;5010875;28;20182;-76
2022/11/06 10:44:27;;;;;;;3.63;1.75;;;10.40;45.60;;;;;;5008845;28;20571;-77
2022/11/06 10:47:02;;;;;;;2.95;1.55;;;10.30;45.30;;;;;;5005007;28;20184;-76
2022/11/06 10:49:44;;;;;;;2.70;1.50;;;10.20;45.20;;;;;;5004677;28;20223;-78
2022/11/06 10:52:37;;;;;;;2.50;1.20;;;9.90;49.80;;;;;;5010718;28;20225;-76
2022/11/06 10:55:28;;;;;;;2.40;1.20;;;9.40;50.90;;;;;;5008032;28;20208;-76
2022/11/06 10:58:02;;;;;;;2.50;1.25;;;8.40;56.90;;;;;;5010028;28;20199;-76
2022/11/06 11:00:28;;;;;;;2.70;1.30;;;7.30;65.00;;;;;;5003206;28;20252;-77
2022/11/06 11:02:57;;;;;;;2.50;1.10;;;6.80;71.90;;;;;;5011014;28;20229;-77
2022/11/06 11:05:25;;;;;;;3.80;2.05;;;7.40;70.60;;;;;;5011705;28;20653;-76
2022/11/06 11:07:51;;;;;;;2.50;1.20;;;7.90;65.20;;;;;;5011834;28;20184;-76
2022/11/06 11:10:22;;;;;;;3.13;1.77;;;8.30;61.80;;;;;;5012001;28;20257;-76
2022/11/06 11:12:49;;;;;;;2.50;1.10;;;8.30;61.00;;;;;;5011726;28;20747;-76
2022/11/06 11:15:21;;;;;;;2.50;1.20;;;7.80;63.10;;;;;;5011964;28;20260;-76
2022/11/06 11:18:18;;;;;;;2.88;1.52;;;7.50;65.90;;;;;;5011752;28;20276;-76
2022/11/06 11:21:02;;;;;;;2.53;1.20;;;7.60;65.50;;;;;;5011717;28;20225;-78
2022/11/06 11:23:28;;;;;;;2.63;1.30;;;8.40;60.50;;;;;;5011220;28;20681;-76
2022/11/06 11:25:55;;;;;;;3.10;1.60;;;9.00;55.50;;;;;;5011962;28;20210;-76
2022/11/06 11:28:29;;;;;;;2.63;1.25;;;9.10;54.10;;;;;;5011644;28;20713;-77
2022/11/06 11:31:14;;;;;;;3.33;1.77;;;9.20;52.50;;;;;;5011630;28;20544;-76
2022/11/06 11:33:46;;;;;;;2.67;1.33;;;9.90;51.60;;;;;;5011611;28;20280;-77
2022/11/06 11:36:12;;;;;;;2.50;1.20;;;10.40;48.90;;;;;;5011693;28;20220;-77
2022/11/06 11:38:39;;;;;;;2.50;1.20;;;10.90;46.30;;;;;;5011480;28;20684;-77
2022/11/06 11:41:20;;;;;;;2.40;1.30;;;11.00;44.90;;;;;;5011508;28;20180;-77
2022/11/06 11:44:10;;;;;;;2.70;1.48;;;11.10;44.50;;;;;;5014071;28;20188;-76
2022/11/06 11:46:45;;;;;;;2.30;1.20;;;11.10;44.00;;;;;;5015345;28;20158;-77
2022/11/06 11:49:32;;;;;;;2.10;1.10;;;11.60;44.00;;;;;;5015264;28;20161;-77
2022/11/06 11:52:01;;;;;;;2.20;1.30;;;11.90;42.70;;;;;;5014980;28;20711;-77
2022/11/06 11:54:32;;;;;;;2.30;1.38;;;11.90;42.60;;;;;;5014853;28;20589;-77
2022/11/06 11:57:03;;;;;;;2.20;1.40;;;12.60;43.50;;;;;;5015099;28;20188;-78
2022/11/06 11:59:43;;;;;;;2.30;1.30;;;12.60;41.80;;;;;;5015160;28;20645;-77
2022/11/06 12:02:33;;;;;;;2.77;1.33;;;12.60;40.60;;;;;;5014733;28;20466;-77
2022/11/06 12:05:11;;;;;;;2.10;1.43;;;12.80;41.90;;;;;;5015035;28;20890;-77
2022/11/06 12:07:40;;;;;;;2.40;1.50;;;13.20;39.90;;;;;;5014832;28;20415;-77
2022/11/06 12:10:26;;;;;;;1.87;1.20;;;13.40;38.50;;;;;;5014854;28;20883;-77
2022/11/06 12:12:52;;;;;;;2.30;1.40;;;13.30;38.60;;;;;;5014354;28;20423;-77
2022/11/06 12:15:18;;;;;;;2.57;1.63;;;13.10;38.10;;;;;;5014888;28;20423;-77
2022/11/06 12:18:06;;;;;;;1.80;1.30;;;13.10;39.50;;;;;;5014572;28;20452;-78
2022/11/06 12:20:56;;;;;;;1.90;1.30;;;13.30;37.60;;;;;;5015174;28;20181;-77
2022/11/06 12:23:31;;;;;;;1.80;1.20;;;12.70;39.50;;;;;;5014192;28;20436;-78
2022/11/06 12:26:27;;;;;;;3.20;2.00;;;12.90;39.30;;;;;;5014667;28;20438;-77
2022/11/06 12:29:00;;;;;;;2.10;1.43;;;12.50;40.00;;;;;;5014563;28;20392;-77
2022/11/06 12:31:44;;;;;;;2.20;1.40;;;13.30;41.30;;;;;;5014609;28;21031;-77
2022/11/06 12:34:16;;;;;;;1.97;1.30;;;13.60;39.20;;;;;;5014114;28;20490;-77
2022/11/06 12:37:02;;;;;;;1.83;1.20;;;13.70;38.00;;;;;;5014664;28;20466;-77
2022/11/06 12:39:33;;;;;;;1.90;1.37;;;13.50;39.30;;;;;;5014448;28;20439;-77
2022/11/06 12:42:01;;;;;;;3.73;1.90;;;13.80;39.10;;;;;;5014190;28;20874;-77
2022/11/06 12:44:26;;;;;;;2.10;1.47;;;14.10;36.70;;;;;;5014301;28;20457;-78
2022/11/06 12:47:06;;;;;;;1.93;1.37;;;14.50;37.50;;;;;;5014196;28;20440;-77
2022/11/06 12:49:46;;;;;;;2.80;1.50;;;14.50;36.50;;;;;;5014154;28;20159;-77
2022/11/06 12:52:42;;;;;;;3.10;1.57;;;14.00;36.20;;;;;;5014111;28;20397;-77
2022/11/06 12:55:21;;;;;;;1.90;1.30;;;12.80;39.80;;;;;;5013479;28;20413;-77
2022/11/06 12:58:31;;;;;;;2.00;1.30;;;11.80;43.70;;;;;;5014075;28;20436;-77
2022/11/06 13:01:55;;;;;;;2.07;1.43;;;11.60;44.70;;;;;;4953017;29;20415;-77
2022/11/06 13:04:29;;;;;;;2.33;1.60;;;11.30;46.00;;;;;;4933832;29;20436;-77
2022/11/06 13:07:01;;;;;;;2.87;1.97;;;12.00;45.20;;;;;;5002215;28;20899;-77
2022/11/06 13:09:34;;;;;;;2.00;1.37;;;11.90;45.20;;;;;;5014048;28;20385;-77
2022/11/06 13:12:36;;;;;;;2.07;1.37;;;12.00;46.00;;;;;;5013657;28;20408;-77
2022/11/06 13:15:32;;;;;;;1.93;1.30;;;12.40;43.40;;;;;;5013893;28;20937;-77
2022/11/06 13:18:16;;;;;;;6.17;2.30;;;13.20;43.90;;;;;;5005442;28;20472;-77
2022/11/06 13:20:51;;;;;;;2.00;1.40;;;14.10;39.40;;;;;;5013732;28;20397;-77
2022/11/06 13:23:39;;;;;;;2.73;1.93;;;14.70;36.70;;;;;;5013277;28;20454;-77
2022/11/06 13:26:14;;;;;;;2.10;1.47;;;14.40;37.40;;;;;;5013481;28;20415;-77
2022/11/06 13:28:48;;;;;;;3.20;1.40;;;14.50;39.00;;;;;;5013569;28;20414;-77
2022/11/06 13:31:17;;;;;;;1.80;1.23;;;14.20;38.60;;;;;;5013367;28;20503;-77
2022/11/06 13:34:04;;;;;;;2.17;1.60;;;14.00;40.10;;;;;;5013188;28;20441;-77